Green River, WY (82935)

4:04 AM MDT on August 04, 2015 (GMT -0600)
College Hill | | Change Station
CLOSE
Current Station
Personal Weather Station
Location: Rock Springs, WY
Elevation: 6488 ft
Nearby Weather Stations

Elev 6488 ft 41.59 °N, 109.23 °W | Updated 10 minutes ago

Partly Cloudy
Partly Cloudy
55.1 °F
Feels Like 55.1 °F
N
0.0
Wind Variable Wind from SSW
Gusts 9.0 mph

Today
High -- | Low -- °F
--% Chance of Precip.
Yesterday
High -- | Low -- °F
Precip. -- in
6:15 AM 8:31 PM
Waning Gibbous, 79% visible
Pressure 29.94 in
Visibility 10.0 miles
Clouds Mostly Cloudy 1400 ft
Mostly Cloudy 2800 ft
Overcast 6000 ft
Dew Point 17 °F
Humidity 22%
Rainfall 0.00 in
Snow Depth Not available.
UV 0 out of 12
Pollen 5.50 out of 12
Air Quality Not available.
Flu Activity Not available.
METAR KRKS 040954Z AUTO 22010KT 10SM BKN014 BKN028 OVC060 12/10 A3016 RMK AO2 SLP137 T01170100

More Conditions Fewer Conditions

Pressure 29.94 in
Visibility 10.0 miles
Clouds Mostly Cloudy 1400 ft
Mostly Cloudy 2800 ft
Overcast 6000 ft
Dew Point 17 °F
Humidity 22%
Rainfall 0.00 in
Snow Depth Not available.
UV 0 out of 12
Pollen 5.50 out of 12
Air Quality Not available.
Flu Activity Not available.
METAR KRKS 040954Z AUTO 22010KT 10SM BKN014 BKN028 OVC060 12/10 A3016 RMK AO2 SLP137 T01170100

More Conditions Fewer Conditions

10-Day Weather Forecast

×

Almanac

Astronomy

Aug. 04, 2015 Rise Set
Actual Time
Civil Twilight
Nautical Twilight
Astronomical Twilight
Moon
Length of Visible Light
Length of Day
Tomorrow will be .
, % of the Moon is Illuminated

Today's Extremes

State Highs State Lows

Community

WunderPhotos

Upload Photos

1,843,882 photos uploaded!

WunderBlogs® & News

Nearby

Air Quality

  Air Quality AQ Index Pollutant
Not available.

Snow Depth

Station Depth Elevation

Earthquake Activity

City Distance Mag. Time & Date
Minimum magnitude displayed is 2.5.

Coastal Water Temperatures

Place Temperature

Stations

Nearby Weather Stations

Station Location Temp. Windchill Dew Point Humidity Wind Precip. Elev Updated Type